sensor_id;sensor_type;location;lat;lon;timestamp;pressure;altitude;pressure_sealevel;temperature;humidity
4814;BME280;15375;48.540;9.268;2024-02-16T00:00:12;97212.66;;;8.85;100.00
4814;BME280;15375;48.540;9.268;2024-02-16T00:02:39;97211.47;;;8.86;100.00
4814;BME280;15375;48.540;9.268;2024-02-16T00:05:07;97217.63;;;8.90;100.00
4814;BME280;15375;48.540;9.268;2024-02-16T00:07:33;97211.47;;;8.86;100.00
4814;BME280;15375;48.540;9.268;2024-02-16T00:09:59;97197.88;;;8.86;100.00
4814;BME280;15375;48.540;9.268;2024-02-16T00:12:25;97207.47;;;8.94;100.00
4814;BME280;15375;48.540;9.268;2024-02-16T00:14:50;97205.13;;;8.96;100.00
4814;BME280;15375;48.540;9.268;2024-02-16T00:17:15;97210.47;;;9.03;100.00
4814;BME280;15375;48.540;9.268;2024-02-16T00:19:41;97214.09;;;8.93;100.00
4814;BME280;15375;48.540;9.268;2024-02-16T00:22:06;97216.91;;;8.86;100.00
4814;BME280;15375;48.540;9.268;2024-02-16T00:24:33;97214.59;;;8.84;100.00
4814;BME280;15375;48.540;9.268;2024-02-16T00:26:59;97219.25;;;8.84;100.00
4814;BME280;15375;48.540;9.268;2024-02-16T00:29:24;97212.00;;;8.74;100.00
4814;BME280;15375;48.540;9.268;2024-02-16T00:31:50;97208.56;;;8.70;100.00
4814;BME280;15375;48.540;9.268;2024-02-16T00:34:15;97217.75;;;8.79;100.00
4814;BME280;15375;48.540;9.268;2024-02-16T00:36:41;97204.50;;;8.85;100.00
4814;BME280;15375;48.540;9.268;2024-02-16T00:39:06;97207.16;;;8.88;100.00
4814;BME280;15375;48.540;9.268;2024-02-16T00:41:31;97200.19;;;8.87;100.00
4814;BME280;15375;48.540;9.268;2024-02-16T00:43:57;97205.63;;;8.87;100.00
4814;BME280;15375;48.540;9.268;2024-02-16T00:46:23;97200.50;;;8.93;100.00
4814;BME280;15375;48.540;9.268;2024-02-16T00:48:52;97197.72;;;8.96;100.00
4814;BME280;15375;48.540;9.268;2024-02-16T00:51:19;97193.47;;;8.95;100.00
4814;BME280;15375;48.540;9.268;2024-02-16T00:53:44;97189.72;;;8.86;100.00
4814;BME280;15375;48.540;9.268;2024-02-16T00:56:10;97192.44;;;8.86;100.00
4814;BME280;15375;48.540;9.268;2024-02-16T00:58:36;97190.47;;;8.86;100.00
4814;BME280;15375;48.540;9.268;2024-02-16T01:01:04;97184.28;;;8.86;100.00
4814;BME280;15375;48.540;9.268;2024-02-16T01:03:29;97189.25;;;8.91;100.00
4814;BME280;15375;48.540;9.268;2024-02-16T01:05:54;97182.72;;;8.85;100.00
4814;BME280;15375;48.540;9.268;2024-02-16T01:08:20;97182.16;;;8.70;100.00
4814;BME280;15375;48.540;9.268;2024-02-16T01:10:45;97189.94;;;8.68;100.00
4814;BME280;15375;48.540;9.268;2024-02-16T01:13:11;97179.13;;;8.65;100.00
4814;BME280;15375;48.540;9.268;2024-02-16T01:15:37;97186.38;;;8.75;100.00
4814;BME280;15375;48.540;9.268;2024-02-16T01:18:03;97179.38;;;8.74;100.00
4814;BME280;15375;48.540;9.268;2024-02-16T01:20:29;97186.00;;;8.73;100.00
4814;BME280;15375;48.540;9.268;2024-02-16T01:22:56;97183.28;;;8.73;100.00
4814;BME280;15375;48.540;9.268;2024-02-16T01:25:22;97180.97;;;8.71;100.00
4814;BME280;15375;48.540;9.268;2024-02-16T01:27:47;97195.28;;;8.75;100.00
4814;BME280;15375;48.540;9.268;2024-02-16T01:30:12;97203.03;;;8.77;100.00
4814;BME280;15375;48.540;9.268;2024-02-16T01:32:39;97206.22;;;8.72;100.00
4814;BME280;15375;48.540;9.268;2024-02-16T01:35:05;97195.31;;;8.72;100.00
4814;BME280;15375;48.540;9.268;2024-02-16T01:37:31;97196.88;;;8.73;100.00
4814;BME280;15375;48.540;9.268;2024-02-16T01:39:57;97196.06;;;8.76;100.00
4814;BME280;15375;48.540;9.268;2024-02-16T01:42:22;97191.44;;;8.73;100.00
4814;BME280;15375;48.540;9.268;2024-02-16T01:44:47;97186.09;;;8.66;100.00
4814;BME280;15375;48.540;9.268;2024-02-16T01:47:13;97188.41;;;8.67;100.00
4814;BME280;15375;48.540;9.268;2024-02-16T01:49:39;97194.97;;;8.70;100.00
4814;BME280;15375;48.540;9.268;2024-02-16T01:52:05;97199.94;;;8.78;100.00
4814;BME280;15375;48.540;9.268;2024-02-16T01:54:30;97194.53;;;8.75;100.00
4814;BME280;15375;48.540;9.268;2024-02-16T01:56:56;97176.41;;;8.65;100.00
4814;BME280;15375;48.540;9.268;2024-02-16T01:59:22;97193.34;;;8.76;100.00
4814;BME280;15375;48.540;9.268;2024-02-16T02:01:47;97187.47;;;8.81;100.00
4814;BME280;15375;48.540;9.268;2024-02-16T02:04:13;97189.41;;;8.80;100.00
4814;BME280;15375;48.540;9.268;2024-02-16T02:06:38;97178.06;;;8.85;100.00
4814;BME280;15375;48.540;9.268;2024-02-16T02:09:04;97169.56;;;8.83;100.00
4814;BME280;15375;48.540;9.268;2024-02-16T02:11:29;97174.16;;;8.86;100.00
4814;BME280;15375;48.540;9.268;2024-02-16T02:13:54;97176.50;;;8.84;100.00
4814;BME280;15375;48.540;9.268;2024-02-16T02:16:20;97173.78;;;8.84;100.00
4814;BME280;15375;48.540;9.268;2024-02-16T02:18:46;97176.13;;;8.86;100.00
4814;BME280;15375;48.540;9.268;2024-02-16T02:21:11;97172.28;;;8.83;100.00
4814;BME280;15375;48.540;9.268;2024-02-16T02:23:38;97147.19;;;8.69;100.00
4814;BME280;15375;48.540;9.268;2024-02-16T02:26:04;97169.13;;;8.85;100.00
4814;BME280;15375;48.540;9.268;2024-02-16T02:28:29;97159.41;;;8.84;100.00
4814;BME280;15375;48.540;9.268;2024-02-16T02:30:54;97156.25;;;8.89;100.00
4814;BME280;15375;48.540;9.268;2024-02-16T02:33:20;97159.06;;;8.82;100.00
4814;BME280;15375;48.540;9.268;2024-02-16T02:35:46;97159.16;;;8.75;100.00
4814;BME280;15375;48.540;9.268;2024-02-16T02:38:12;97159.41;;;8.84;100.00
4814;BME280;15375;48.540;9.268;2024-02-16T02:40:38;97150.56;;;8.80;100.00
4814;BME280;15375;48.540;9.268;2024-02-16T02:43:03;97161.84;;;8.78;100.00
4814;BME280;15375;48.540;9.268;2024-02-16T02:45:29;97164.25;;;8.73;100.00
4814;BME280;15375;48.540;9.268;2024-02-16T02:47:54;97136.84;;;8.60;100.00
4814;BME280;15375;48.540;9.268;2024-02-16T02:50:19;97152.63;;;8.69;100.00
4814;BME280;15375;48.540;9.268;2024-02-16T02:52:45;97157.63;;;8.74;100.00
4814;BME280;15375;48.540;9.268;2024-02-16T02:55:10;97150.47;;;8.57;100.00
4814;BME280;15375;48.540;9.268;2024-02-16T02:57:36;97152.34;;;8.63;100.00
4814;BME280;15375;48.540;9.268;2024-02-16T03:00:06;97141.88;;;8.62;100.00
4814;BME280;15375;48.540;9.268;2024-02-16T03:02:39;97149.56;;;8.67;100.00
4814;BME280;15375;48.540;9.268;2024-02-16T03:05:06;97138.78;;;8.60;100.00
4814;BME280;15375;48.540;9.268;2024-02-16T03:07:33;97152.63;;;8.69;100.00
4814;BME280;15375;48.540;9.268;2024-02-16T03:09:58;97143.00;;;8.64;100.00
4814;BME280;15375;48.540;9.268;2024-02-16T03:12:24;97145.03;;;8.57;100.00
4814;BME280;15375;48.540;9.268;2024-02-16T03:14:49;97145.81;;;8.57;100.00
4814;BME280;15375;48.540;9.268;2024-02-16T03:17:15;97152.63;;;8.69;100.00
4814;BME280;15375;48.540;9.268;2024-02-16T03:19:40;97146.75;;;8.74;100.00
4814;BME280;15375;48.540;9.268;2024-02-16T03:22:05;97138.13;;;8.79;100.00
4814;BME280;15375;48.540;9.268;2024-02-16T03:24:31;97150.91;;;8.82;100.00
4814;BME280;15375;48.540;9.268;2024-02-16T03:26:56;97152.00;;;8.88;100.00
4814;BME280;15375;48.540;9.268;2024-02-16T03:29:21;97135.88;;;8.74;100.00
4814;BME280;15375;48.540;9.268;2024-02-16T03:31:47;97153.69;;;8.78;100.00
4814;BME280;15375;48.540;9.268;2024-02-16T03:34:12;97142.41;;;8.80;100.00
4814;BME280;15375;48.540;9.268;2024-02-16T03:36:37;97147.13;;;8.76;100.00
4814;BME280;15375;48.540;9.268;2024-02-16T03:39:03;97135.97;;;8.67;100.00
4814;BME280;15375;48.540;9.268;2024-02-16T03:41:28;97141.75;;;8.69;100.00
4814;BME280;15375;48.540;9.268;2024-02-16T03:43:54;97144.81;;;8.74;100.00
4814;BME280;15375;48.540;9.268;2024-02-16T03:46:20;97156.34;;;8.82;100.00
4814;BME280;15375;48.540;9.268;2024-02-16T03:48:45;97149.38;;;8.81;100.00
4814;BME280;15375;48.540;9.268;2024-02-16T03:51:11;97152.19;;;8.74;100.00
4814;BME280;15375;48.540;9.268;2024-02-16T03:53:36;97149.16;;;8.68;100.00
4814;BME280;15375;48.540;9.268;2024-02-16T03:56:02;97150.97;;;8.78;100.00
4814;BME280;15375;48.540;9.268;2024-02-16T03:58:27;97126.91;;;8.77;100.00
4814;BME280;15375;48.540;9.268;2024-02-16T04:00:53;97153.13;;;8.90;100.00
4814;BME280;15375;48.540;9.268;2024-02-16T04:03:18;97138.88;;;8.83;100.00
4814;BME280;15375;48.540;9.268;2024-02-16T04:05:44;97145.38;;;8.89;100.00
4814;BME280;15375;48.540;9.268;2024-02-16T04:08:09;97147.28;;;8.92;100.00
4814;BME280;15375;48.540;9.268;2024-02-16T04:10:35;97143.75;;;8.95;100.00
4814;BME280;15375;48.540;9.268;2024-02-16T04:13:01;97148.72;;;9.00;100.00
4814;BME280;15375;48.540;9.268;2024-02-16T04:15:26;97151.44;;;9.00;100.00
4814;BME280;15375;48.540;9.268;2024-02-16T04:17:52;97153.72;;;9.02;100.00
4814;BME280;15375;48.540;9.268;2024-02-16T04:20:18;97155.25;;;9.06;100.00
4814;BME280;15375;48.540;9.268;2024-02-16T04:22:44;97156.38;;;9.09;100.00
4814;BME280;15375;48.540;9.268;2024-02-16T04:25:10;97160.63;;;9.10;100.00
4814;BME280;15375;48.540;9.268;2024-02-16T04:27:36;97170.81;;;9.02;100.00
4814;BME280;15375;48.540;9.268;2024-02-16T04:30:03;97169.44;;;8.90;100.00
4814;BME280;15375;48.540;9.268;2024-02-16T04:32:28;97171.88;;;8.81;100.00
4814;BME280;15375;48.540;9.268;2024-02-16T04:34:54;97175.16;;;8.69;100.00
4814;BME280;15375;48.540;9.268;2024-02-16T04:37:21;97172.22;;;8.57;100.00
4814;BME280;15375;48.540;9.268;2024-02-16T04:39:47;97167.75;;;8.43;100.00
4814;BME280;15375;48.540;9.268;2024-02-16T04:42:12;97178.97;;;8.45;100.00
4814;BME280;15375;48.540;9.268;2024-02-16T04:44:38;97191.75;;;8.48;100.00
4814;BME280;15375;48.540;9.268;2024-02-16T04:47:04;97183.72;;;8.38;100.00
4814;BME280;15375;48.540;9.268;2024-02-16T04:49:29;97195.31;;;8.42;100.00
4814;BME280;15375;48.540;9.268;2024-02-16T04:51:54;97182.50;;;8.42;100.00
4814;BME280;15375;48.540;9.268;2024-02-16T04:54:20;97183.38;;;8.36;100.00
4814;BME280;15375;48.540;9.268;2024-02-16T04:56:45;97185.78;;;8.26;100.00
4814;BME280;15375;48.540;9.268;2024-02-16T04:59:10;97174.94;;;8.23;100.00
4814;BME280;15375;48.540;9.268;2024-02-16T05:01:36;97174.47;;;8.31;100.00
4814;BME280;15375;48.540;9.268;2024-02-16T05:04:01;97182.16;;;8.37;100.00
4814;BME280;15375;48.540;9.268;2024-02-16T05:06:27;97171.75;;;8.31;100.00
4814;BME280;15375;48.540;9.268;2024-02-16T05:08:52;97186.09;;;8.36;100.00
4814;BME280;15375;48.540;9.268;2024-02-16T05:11:19;97184.19;;;8.29;100.00
4814;BME280;15375;48.540;9.268;2024-02-16T05:13:44;97179.13;;;8.31;100.00
4814;BME280;15375;48.540;9.268;2024-02-16T05:16:10;97180.22;;;8.37;100.00
4814;BME280;15375;48.540;9.268;2024-02-16T05:18:36;97179.78;;;8.42;100.00
4814;BME280;15375;48.540;9.268;2024-02-16T05:21:02;97187.06;;;8.49;100.00
4814;BME280;15375;48.540;9.268;2024-02-16T05:23:27;97180.19;;;8.41;100.00
4814;BME280;15375;48.540;9.268;2024-02-16T05:25:53;97184.09;;;8.40;100.00
4814;BME280;15375;48.540;9.268;2024-02-16T05:28:19;97191.00;;;8.44;100.00
4814;BME280;15375;48.540;9.268;2024-02-16T05:30:45;97185.63;;;8.41;100.00
4814;BME280;15375;48.540;9.268;2024-02-16T05:33:10;97190.19;;;8.51;100.00
4814;BME280;15375;48.540;9.268;2024-02-16T05:35:36;97172.31;;;8.50;100.00
4814;BME280;15375;48.540;9.268;2024-02-16T05:38:05;97177.31;;;8.55;100.00
4814;BME280;15375;48.540;9.268;2024-02-16T05:40:35;97196.19;;;8.65;100.00
4814;BME280;15375;48.540;9.268;2024-02-16T05:43:18;97181.88;;;8.61;100.00
4814;BME280;15375;48.540;9.268;2024-02-16T05:45:44;97181.47;;;8.63;100.00
4814;BME280;15375;48.540;9.268;2024-02-16T05:48:09;97181.84;;;8.65;100.00
4814;BME280;15375;48.540;9.268;2024-02-16T05:50:35;97196.69;;;8.57;100.00
4814;BME280;15375;48.540;9.268;2024-02-16T05:53:00;97192.50;;;8.49;100.00
4814;BME280;15375;48.540;9.268;2024-02-16T05:55:26;97204.47;;;8.55;100.00
4814;BME280;15375;48.540;9.268;2024-02-16T05:57:51;97199.53;;;8.46;100.00
4814;BME280;15375;48.540;9.268;2024-02-16T06:00:17;97216.16;;;8.52;100.00
4814;BME280;15375;48.540;9.268;2024-02-16T06:02:46;97215.81;;;8.50;100.00
4814;BME280;15375;48.540;9.268;2024-02-16T06:05:11;97214.25;;;8.49;100.00
4814;BME280;15375;48.540;9.268;2024-02-16T06:07:37;97223.50;;;8.55;100.00
4814;BME280;15375;48.540;9.268;2024-02-16T06:10:06;97215.69;;;8.60;100.00
4814;BME280;15375;48.540;9.268;2024-02-16T06:12:39;97214.09;;;8.63;100.00
4814;BME280;15375;48.540;9.268;2024-02-16T06:15:05;97213.22;;;8.69;100.00
4814;BME280;15375;48.540;9.268;2024-02-16T06:17:31;97214.50;;;8.61;100.00
4814;BME280;15375;48.540;9.268;2024-02-16T06:19:56;97224.91;;;8.66;100.00
4814;BME280;15375;48.540;9.268;2024-02-16T06:22:21;97234.19;;;8.69;100.00
4814;BME280;15375;48.540;9.268;2024-02-16T06:24:47;97239.34;;;8.63;100.00
4814;BME280;15375;48.540;9.268;2024-02-16T06:27:12;97245.97;;;8.59;100.00
4814;BME280;15375;48.540;9.268;2024-02-16T06:29:38;97246.75;;;8.59;100.00
4814;BME280;15375;48.540;9.268;2024-02-16T06:32:04;97249.13;;;8.54;100.00
4814;BME280;15375;48.540;9.268;2024-02-16T06:34:30;97255.03;;;8.49;100.00
4814;BME280;15375;48.540;9.268;2024-02-16T06:36:56;97246.16;;;8.45;100.00
4814;BME280;15375;48.540;9.268;2024-02-16T06:39:22;97253.84;;;8.50;100.00
4814;BME280;15375;48.540;9.268;2024-02-16T06:41:48;97249.59;;;8.49;100.00
4814;BME280;15375;48.540;9.268;2024-02-16T06:44:15;97243.00;;;8.46;100.00
4814;BME280;15375;48.540;9.268;2024-02-16T06:46:41;97269.81;;;8.48;100.00
4814;BME280;15375;48.540;9.268;2024-02-16T06:49:06;97274.09;;;8.45;100.00
4814;BME280;15375;48.540;9.268;2024-02-16T06:51:32;97275.72;;;8.39;100.00
4814;BME280;15375;48.540;9.268;2024-02-16T06:53:57;97285.06;;;8.38;100.00
4814;BME280;15375;48.540;9.268;2024-02-16T06:56:22;97277.84;;;8.17;100.00
4814;BME280;15375;48.540;9.268;2024-02-16T06:58:49;97285.16;;;8.24;100.00
4814;BME280;15375;48.540;9.268;2024-02-16T07:01:15;97287.13;;;8.20;100.00
4814;BME280;15375;48.540;9.268;2024-02-16T07:03:41;97289.09;;;8.16;100.00
4814;BME280;15375;48.540;9.268;2024-02-16T07:06:08;97279.84;;;8.10;100.00
4814;BME280;15375;48.540;9.268;2024-02-16T07:08:36;97283.28;;;8.17;100.00
4814;BME280;15375;48.540;9.268;2024-02-16T07:11:02;97285.16;;;8.27;100.00
4814;BME280;15375;48.540;9.268;2024-02-16T07:13:28;97275.41;;;8.30;100.00
4814;BME280;15375;48.540;9.268;2024-02-16T07:15:54;97270.63;;;8.41;100.00
4814;BME280;15375;48.540;9.268;2024-02-16T07:18:19;97285.59;;;8.60;100.00
4814;BME280;15375;48.540;9.268;2024-02-16T07:20:45;97280.88;;;8.64;100.00
4814;BME280;15375;48.540;9.268;2024-02-16T07:23:10;97279.53;;;8.79;100.00
4814;BME280;15375;48.540;9.268;2024-02-16T07:25:36;97283.78;;;8.83;100.00
4814;BME280;15375;48.540;9.268;2024-02-16T07:28:01;97270.66;;;9.05;100.00
4814;BME280;15375;48.540;9.268;2024-02-16T07:30:26;97261.59;;;9.15;100.00
4814;BME280;15375;48.540;9.268;2024-02-16T07:32:52;97267.22;;;9.31;100.00
4814;BME280;15375;48.540;9.268;2024-02-16T07:35:18;97265.84;;;9.46;100.00
4814;BME280;15375;48.540;9.268;2024-02-16T07:37:43;97268.13;;;9.48;100.00
4814;BME280;15375;48.540;9.268;2024-02-16T07:40:09;97271.88;;;9.57;100.00
4814;BME280;15375;48.540;9.268;2024-02-16T07:42:40;97268.56;;;9.70;100.00
4814;BME280;15375;48.540;9.268;2024-02-16T07:45:08;97265.81;;;9.73;100.00
4814;BME280;15375;48.540;9.268;2024-02-16T07:47:35;97266.16;;;9.75;100.00
4814;BME280;15375;48.540;9.268;2024-02-16T07:50:01;97281.69;;;9.78;100.00
4814;BME280;15375;48.540;9.268;2024-02-16T07:52:26;97274.19;;;9.59;100.00
4814;BME280;15375;48.540;9.268;2024-02-16T07:54:51;97278.53;;;9.56;100.00
4814;BME280;15375;48.540;9.268;2024-02-16T07:57:17;97286.94;;;9.66;100.00
4814;BME280;15375;48.540;9.268;2024-02-16T07:59:43;97275.38;;;9.58;100.00
4814;BME280;15375;48.540;9.268;2024-02-16T08:02:09;97286.69;;;9.56;100.00
4814;BME280;15375;48.540;9.268;2024-02-16T08:04:34;97281.94;;;9.60;100.00
4814;BME280;15375;48.540;9.268;2024-02-16T08:07:00;97280.84;;;9.54;100.00
4814;BME280;15375;48.540;9.268;2024-02-16T08:09:26;97286.78;;;9.49;100.00
4814;BME280;15375;48.540;9.268;2024-02-16T08:11:52;97285.59;;;9.50;100.00
4814;BME280;15375;48.540;9.268;2024-02-16T08:14:17;97285.13;;;9.55;100.00
4814;BME280;15375;48.540;9.268;2024-02-16T08:16:42;97284.16;;;9.69;100.00
4814;BME280;15375;48.540;9.268;2024-02-16T08:19:08;97295.94;;;10.12;100.00
4814;BME280;15375;48.540;9.268;2024-02-16T08:21:33;97292.81;;;10.14;100.00
4814;BME280;15375;48.540;9.268;2024-02-16T08:23:58;97298.47;;;10.46;100.00
4814;BME280;15375;48.540;9.268;2024-02-16T08:26:24;97299.84;;;10.97;100.00
4814;BME280;15375;48.540;9.268;2024-02-16T08:28:50;97288.75;;;11.24;98.75
4814;BME280;15375;48.540;9.268;2024-02-16T08:31:18;97290.09;;;11.87;93.36
4814;BME280;15375;48.540;9.268;2024-02-16T08:33:44;97284.94;;;12.22;88.61
4814;BME280;15375;48.540;9.268;2024-02-16T08:36:10;97284.94;;;12.38;86.72
4814;BME280;15375;48.540;9.268;2024-02-16T08:38:38;97292.81;;;12.03;89.31
4814;BME280;15375;48.540;9.268;2024-02-16T08:41:04;97301.53;;;12.31;88.74
4814;BME280;15375;48.540;9.268;2024-02-16T08:43:29;97307.25;;;12.65;85.32
4814;BME280;15375;48.540;9.268;2024-02-16T08:45:55;97301.16;;;13.02;81.67
4814;BME280;15375;48.540;9.268;2024-02-16T08:48:21;97296.75;;;13.21;80.19
4814;BME280;15375;48.540;9.268;2024-02-16T08:50:47;97295.47;;;13.51;76.67
4814;BME280;15375;48.540;9.268;2024-02-16T08:53:12;97295.56;;;13.85;74.51
4814;BME280;15375;48.540;9.268;2024-02-16T08:55:39;97290.31;;;14.03;73.26
4814;BME280;15375;48.540;9.268;2024-02-16T08:58:07;97296.38;;;14.57;71.27
4814;BME280;15375;48.540;9.268;2024-02-16T09:00:32;97278.09;;;14.63;68.88
4814;BME280;15375;48.540;9.268;2024-02-16T09:02:58;97293.28;;;14.55;66.86
4814;BME280;15375;48.540;9.268;2024-02-16T09:05:23;97280.94;;;14.73;66.81
4814;BME280;15375;48.540;9.268;2024-02-16T09:07:49;97296.50;;;15.19;64.41
4814;BME280;15375;48.540;9.268;2024-02-16T09:10:14;97296.25;;;15.26;63.63
4814;BME280;15375;48.540;9.268;2024-02-16T09:12:40;97292.56;;;14.77;64.93
4814;BME280;15375;48.540;9.268;2024-02-16T09:15:06;97286.81;;;15.05;64.46
4814;BME280;15375;48.540;9.268;2024-02-16T09:17:31;97305.28;;;15.48;64.09
4814;BME280;15375;48.540;9.268;2024-02-16T09:19:57;97290.22;;;15.40;62.28
4814;BME280;15375;48.540;9.268;2024-02-16T09:22:23;97303.25;;;15.70;60.53
4814;BME280;15375;48.540;9.268;2024-02-16T09:24:48;97299.06;;;15.13;61.87
4814;BME280;15375;48.540;9.268;2024-02-16T09:27:13;97311.81;;;15.51;63.12
4814;BME280;15375;48.540;9.268;2024-02-16T09:29:39;97307.97;;;16.10;61.13
4814;BME280;15375;48.540;9.268;2024-02-16T09:32:05;97305.03;;;16.04;59.64
4814;BME280;15375;48.540;9.268;2024-02-16T09:34:31;97302.31;;;16.13;59.43
4814;BME280;15375;48.540;9.268;2024-02-16T09:36:56;97307.50;;;16.11;60.13
4814;BME280;15375;48.540;9.268;2024-02-16T09:39:22;97316.81;;;16.90;57.43
4814;BME280;15375;48.540;9.268;2024-02-16T09:41:50;97306.28;;;16.88;56.95
4814;BME280;15375;48.540;9.268;2024-02-16T09:44:17;97321.84;;;17.09;56.07
4814;BME280;15375;48.540;9.268;2024-02-16T09:46:43;97311.63;;;16.74;56.48
4814;BME280;15375;48.540;9.268;2024-02-16T09:49:08;97308.34;;;17.57;54.96
4814;BME280;15375;48.540;9.268;2024-02-16T09:51:37;97321.13;;;17.87;53.96
4814;BME280;15375;48.540;9.268;2024-02-16T09:54:03;97319.22;;;17.93;52.15
4814;BME280;15375;48.540;9.268;2024-02-16T09:56:29;97319.88;;;17.88;50.72
4814;BME280;15375;48.540;9.268;2024-02-16T09:58:54;97331.59;;;18.39;52.42
4814;BME280;15375;48.540;9.268;2024-02-16T10:01:23;97332.56;;;18.60;51.58
4814;BME280;15375;48.540;9.268;2024-02-16T10:03:49;97321.28;;;18.73;49.54
4814;BME280;15375;48.540;9.268;2024-02-16T10:06:15;97349.31;;;18.57;50.01
4814;BME280;15375;48.540;9.268;2024-02-16T10:08:51;97347.78;;;18.56;50.90
4814;BME280;15375;48.540;9.268;2024-02-16T10:11:18;97340.31;;;18.71;50.42
4814;BME280;15375;48.540;9.268;2024-02-16T10:14:13;97342.94;;;18.89;48.67
4814;BME280;15375;48.540;9.268;2024-02-16T10:16:38;97340.59;;;18.16;48.82
4814;BME280;15375;48.540;9.268;2024-02-16T10:19:05;97365.53;;;18.31;50.13
4814;BME280;15375;48.540;9.268;2024-02-16T10:21:31;97361.75;;;18.19;51.15
4814;BME280;15375;48.540;9.268;2024-02-16T10:26:34;97358.41;;;17.73;51.23
4814;BME280;15375;48.540;9.268;2024-02-16T10:29:03;97360.81;;;17.90;50.85
4814;BME280;15375;48.540;9.268;2024-02-16T10:31:30;97351.91;;;17.95;51.56
4814;BME280;15375;48.540;9.268;2024-02-16T10:33:58;97356.59;;;18.03;50.09
4814;BME280;15375;48.540;9.268;2024-02-16T10:36:24;97352.41;;;18.17;50.88
4814;BME280;15375;48.540;9.268;2024-02-16T10:38:52;97362.31;;;18.32;52.57
4814;BME280;15375;48.540;9.268;2024-02-16T10:41:18;97357.38;;;18.36;51.83
4814;BME280;15375;48.540;9.268;2024-02-16T10:43:47;97369.28;;;18.52;52.58
4814;BME280;15375;48.540;9.268;2024-02-16T10:46:15;97350.63;;;18.70;51.97
4814;BME280;15375;48.540;9.268;2024-02-16T10:48:41;97340.84;;;18.84;51.05
4814;BME280;15375;48.540;9.268;2024-02-16T10:51:08;97358.38;;;19.34;51.61
4814;BME280;15375;48.540;9.268;2024-02-16T10:53:35;97352.66;;;19.23;48.50
4814;BME280;15375;48.540;9.268;2024-02-16T10:56:01;97362.19;;;19.36;49.45
4814;BME280;15375;48.540;9.268;2024-02-16T10:58:27;97358.19;;;19.61;50.58
4814;BME280;15375;48.540;9.268;2024-02-16T11:00:55;97355.03;;;19.68;50.50
4814;BME280;15375;48.540;9.268;2024-02-16T11:03:23;97350.56;;;19.32;49.75
4814;BME280;15375;48.540;9.268;2024-02-16T11:05:49;97358.25;;;19.13;50.26
4814;BME280;15375;48.540;9.268;2024-02-16T11:08:16;97354.22;;;19.00;49.83
4814;BME280;15375;48.540;9.268;2024-02-16T11:11:01;97353.63;;;19.34;51.49
4814;BME280;15375;48.540;9.268;2024-02-16T11:13:33;97353.50;;;19.29;49.81
4814;BME280;15375;48.540;9.268;2024-02-16T11:15:59;97354.00;;;19.27;49.77
4814;BME280;15375;48.540;9.268;2024-02-16T11:18:29;97360.28;;;18.89;50.95
4814;BME280;15375;48.540;9.268;2024-02-16T11:20:54;97361.09;;;19.04;52.24
4814;BME280;15375;48.540;9.268;2024-02-16T11:23:27;97357.34;;;19.31;51.18
4814;BME280;15375;48.540;9.268;2024-02-16T11:25:54;97353.44;;;19.23;52.18
4814;BME280;15375;48.540;9.268;2024-02-16T11:28:19;97351.88;;;19.75;52.34
4814;BME280;15375;48.540;9.268;2024-02-16T11:30:45;97355.84;;;19.74;51.19
4814;BME280;15375;48.540;9.268;2024-02-16T11:33:11;97356.25;;;19.52;50.45
4814;BME280;15375;48.540;9.268;2024-02-16T11:35:36;97354.72;;;19.51;50.07
4814;BME280;15375;48.540;9.268;2024-02-16T11:38:02;97362.38;;;19.18;51.51
4814;BME280;15375;48.540;9.268;2024-02-16T11:40:27;97364.63;;;19.05;52.76
4814;BME280;15375;48.540;9.268;2024-02-16T11:43:02;97359.47;;;18.98;53.54
4814;BME280;15375;48.540;9.268;2024-02-16T11:45:27;97365.50;;;18.73;55.53
4814;BME280;15375;48.540;9.268;2024-02-16T11:48:08;97368.53;;;18.75;55.09
4814;BME280;15375;48.540;9.268;2024-02-16T11:50:35;97373.75;;;18.49;55.75
4814;BME280;15375;48.540;9.268;2024-02-16T11:53:00;97365.19;;;18.47;55.02
4814;BME280;15375;48.540;9.268;2024-02-16T11:55:25;97382.31;;;18.51;54.53
4814;BME280;15375;48.540;9.268;2024-02-16T11:57:51;97367.75;;;18.51;56.12
4814;BME280;15375;48.540;9.268;2024-02-16T12:00:16;97361.94;;;18.48;55.00
4814;BME280;15375;48.540;9.268;2024-02-16T12:02:42;97364.69;;;18.48;54.63
4814;BME280;15375;48.540;9.268;2024-02-16T12:05:08;97366.59;;;18.33;55.80
4814;BME280;15375;48.540;9.268;2024-02-16T12:07:36;97364.44;;;18.37;55.60
4814;BME280;15375;48.540;9.268;2024-02-16T12:10:06;97366.88;;;18.35;55.00
4814;BME280;15375;48.540;9.268;2024-02-16T12:12:31;97367.88;;;18.23;55.72
4814;BME280;15375;48.540;9.268;2024-02-16T12:14:57;97358.28;;;18.10;56.03
4814;BME280;15375;48.540;9.268;2024-02-16T12:17:23;97369.47;;;18.06;57.43
4814;BME280;15375;48.540;9.268;2024-02-16T12:19:50;97363.47;;;18.08;57.48
4814;BME280;15375;48.540;9.268;2024-02-16T12:22:20;97374.31;;;17.78;57.16
4814;BME280;15375;48.540;9.268;2024-02-16T12:24:47;97374.47;;;17.75;57.04
4814;BME280;15375;48.540;9.268;2024-02-16T12:27:13;97368.03;;;17.78;56.54
4814;BME280;15375;48.540;9.268;2024-02-16T12:29:39;97375.97;;;17.85;56.17
4814;BME280;15375;48.540;9.268;2024-02-16T12:32:05;97376.16;;;17.72;57.16
4814;BME280;15375;48.540;9.268;2024-02-16T12:34:31;97386.00;;;17.64;58.49
4814;BME280;15375;48.540;9.268;2024-02-16T12:36:57;97386.44;;;17.72;58.64
4814;BME280;15375;48.540;9.268;2024-02-16T12:39:22;97377.72;;;17.64;58.98
4814;BME280;15375;48.540;9.268;2024-02-16T12:41:47;97372.22;;;17.64;58.63
4814;BME280;15375;48.540;9.268;2024-02-16T12:44:14;97375.25;;;17.75;59.68
4814;BME280;15375;48.540;9.268;2024-02-16T12:46:39;97376.53;;;17.56;58.94
4814;BME280;15375;48.540;9.268;2024-02-16T12:49:06;97386.59;;;17.50;59.90
4814;BME280;15375;48.540;9.268;2024-02-16T12:51:32;97388.75;;;17.46;60.40
4814;BME280;15375;48.540;9.268;2024-02-16T12:53:57;97397.81;;;17.47;60.27
4814;BME280;15375;48.540;9.268;2024-02-16T12:56:23;97388.78;;;17.64;60.34
4814;BME280;15375;48.540;9.268;2024-02-16T12:58:48;97388.00;;;17.55;60.98
4814;BME280;15375;48.540;9.268;2024-02-16T13:01:13;97388.00;;;17.55;61.17
4814;BME280;15375;48.540;9.268;2024-02-16T13:03:39;97376.53;;;17.56;60.63
4814;BME280;15375;48.540;9.268;2024-02-16T13:06:05;97374.50;;;17.66;60.72